createdAt,value
2019-01-23T00:02:23.527Z,-7.90
2019-01-23T00:04:53.379Z,-8.00
2019-01-23T00:07:23.382Z,-8.00
2019-01-23T00:09:53.026Z,-8.00
2019-01-23T00:12:22.758Z,-7.90
2019-01-23T00:14:52.650Z,-8.00
2019-01-23T00:17:22.408Z,-8.00
2019-01-23T00:19:52.341Z,-8.00
2019-01-23T00:22:22.148Z,-8.00
2019-01-23T00:24:51.957Z,-8.10
2019-01-23T00:27:21.707Z,-8.10
2019-01-23T00:29:52.503Z,-8.10
2019-01-23T00:32:24.059Z,-8.10
2019-01-23T00:34:53.872Z,-8.10
2019-01-23T00:37:23.711Z,-8.20
2019-01-23T00:39:53.706Z,-8.20
2019-01-23T00:42:23.510Z,-8.20
2019-01-23T00:44:53.351Z,-8.20
2019-01-23T00:47:23.010Z,-8.20
2019-01-23T00:49:52.660Z,-8.20
2019-01-23T00:52:22.447Z,-8.10
2019-01-23T00:54:52.316Z,-8.10
2019-01-23T00:57:22.072Z,-7.90
2019-01-23T00:59:51.755Z,-7.80
2019-01-23T01:02:21.547Z,-7.80
2019-01-23T01:04:51.202Z,-7.80
2019-01-23T01:07:21.189Z,-7.80
2019-01-23T01:09:51.199Z,-7.90
2019-01-23T01:12:21.119Z,-7.90
2019-01-23T01:14:51.244Z,-7.90
2019-01-23T01:17:20.951Z,-8.00
2019-01-23T01:19:51.638Z,-7.90
2019-01-23T01:22:23.120Z,-8.00
2019-01-23T01:24:52.984Z,-7.90
2019-01-23T01:27:22.795Z,-7.80
2019-01-23T01:29:52.546Z,-7.80
2019-01-23T01:32:22.224Z,-7.80
2019-01-23T01:34:53.201Z,-7.70
2019-01-23T01:37:23.122Z,-7.50
2019-01-23T01:39:54.820Z,-7.50
2019-01-23T01:42:24.606Z,-7.70
2019-01-23T01:44:56.330Z,-7.70
2019-01-23T01:47:26.026Z,-7.60
2019-01-23T01:49:55.796Z,-7.50
2019-01-23T01:52:25.648Z,-7.50
2019-01-23T01:54:56.440Z,-7.50
2019-01-23T01:57:26.519Z,-7.50
2019-01-23T01:59:56.411Z,-7.60
2019-01-23T02:02:27.965Z,-7.80
2019-01-23T02:04:57.800Z,-7.90
2019-01-23T02:07:27.449Z,-7.90
2019-01-23T02:09:57.192Z,-7.90
2019-01-23T02:12:26.851Z,-7.80
2019-01-23T02:14:56.670Z,-7.80
2019-01-23T02:17:26.503Z,-7.80
2019-01-23T02:19:56.167Z,-7.70
2019-01-23T02:22:26.049Z,-7.70
2019-01-23T02:24:57.683Z,-7.70
2019-01-23T02:27:27.514Z,-7.80
2019-01-23T02:29:59.049Z,-7.90
2019-01-23T02:32:28.787Z,-7.90
2019-01-23T02:34:58.497Z,-8.00
2019-01-23T02:37:28.275Z,-8.00
2019-01-23T02:39:59.323Z,-7.90
2019-01-23T02:42:29.016Z,-7.80
2019-01-23T02:44:58.823Z,-7.80
2019-01-23T02:47:28.523Z,-7.90
2019-01-23T02:49:59.394Z,-7.90
2019-01-23T02:52:29.451Z,-7.80
2019-01-23T02:55:01.167Z,-7.80
2019-01-23T02:57:32.376Z,-7.70
2019-01-23T03:00:02.064Z,-7.70
2019-01-23T03:02:32.851Z,-7.90
2019-01-23T03:05:02.649Z,-7.90
2019-01-23T03:07:33.655Z,-7.80
2019-01-23T03:10:03.683Z,-7.70
2019-01-23T03:12:34.419Z,-7.60
2019-01-23T03:15:04.360Z,-7.80
2019-01-23T03:17:34.342Z,-8.00
2019-01-23T03:20:05.485Z,-8.10
2019-01-23T03:22:38.475Z,-8.10
2019-01-23T03:25:09.183Z,-8.20
2019-01-23T03:27:38.873Z,-8.20
2019-01-23T03:30:11.479Z,-8.30
2019-01-23T03:32:41.128Z,-8.30
2019-01-23T03:35:11.126Z,-8.30
2019-01-23T03:37:40.783Z,-8.20
2019-01-23T03:40:13.790Z,-8.30
2019-01-23T03:42:43.540Z,-8.30
2019-01-23T03:45:13.912Z,-8.30
2019-01-23T03:47:43.622Z,-8.40
2019-01-23T03:50:15.181Z,-8.40
2019-01-23T03:52:45.120Z,-8.40
2019-01-23T03:55:15.535Z,-8.50
2019-01-23T03:57:45.279Z,-8.50
2019-01-23T04:00:18.433Z,-8.50
2019-01-23T04:02:49.106Z,-8.50
2019-01-23T04:05:19.163Z,-8.50
2019-01-23T04:07:48.881Z,-8.50
2019-01-23T04:10:20.125Z,-8.50
2019-01-23T04:12:49.899Z,-8.60
2019-01-23T04:15:19.797Z,-8.70
2019-01-23T04:17:50.963Z,-8.70
2019-01-23T04:20:22.483Z,-8.60
2019-01-23T04:22:52.450Z,-8.60
2019-01-23T04:25:23.842Z,-8.60
2019-01-23T04:27:53.618Z,-8.40
2019-01-23T04:30:24.766Z,-8.40
2019-01-23T04:32:54.521Z,-8.40
2019-01-23T04:35:24.196Z,-8.50
2019-01-23T04:37:53.898Z,-8.40
2019-01-23T04:40:25.513Z,-8.40
2019-01-23T04:42:55.316Z,-8.40
2019-01-23T04:45:24.979Z,-8.30
2019-01-23T04:47:54.624Z,-8.40
2019-01-23T04:50:24.344Z,-8.40
2019-01-23T04:53:12.876Z,-8.40
2019-01-23T04:55:42.788Z,-8.40
2019-01-23T04:58:14.314Z,-8.20
2019-01-23T05:00:44.750Z,-8.20
2019-01-23T05:03:14.572Z,-8.20
2019-01-23T05:05:44.493Z,-8.20
2019-01-23T05:08:14.187Z,-8.20
2019-01-23T05:10:43.841Z,-8.30
2019-01-23T05:13:13.586Z,-8.20
2019-01-23T05:15:43.273Z,-8.00
2019-01-23T05:18:13.137Z,-7.90
2019-01-23T05:20:42.824Z,-7.80
2019-01-23T05:23:12.491Z,-7.80
2019-01-23T05:25:42.566Z,-7.90
2019-01-23T05:28:12.508Z,-7.80
2019-01-23T05:30:42.406Z,-7.80
2019-01-23T05:33:12.227Z,-7.90
2019-01-23T05:35:41.927Z,-7.90
2019-01-23T05:38:13.768Z,-7.70
2019-01-23T05:40:45.354Z,-7.60
2019-01-23T05:43:17.653Z,-7.60
2019-01-23T05:45:47.495Z,-7.50
2019-01-23T05:48:17.310Z,-7.60
2019-01-23T05:50:48.166Z,-7.60
2019-01-23T05:53:17.964Z,-7.70
2019-01-23T05:55:47.657Z,-7.70
2019-01-23T05:58:20.448Z,-7.80
2019-01-23T06:00:50.111Z,-7.70
2019-01-23T06:03:19.834Z,-7.70
2019-01-23T06:05:49.500Z,-7.60
2019-01-23T06:08:20.890Z,-7.70
2019-01-23T06:10:50.646Z,-7.70
2019-01-23T06:13:20.411Z,-7.60
2019-01-23T06:15:50.074Z,-7.50
2019-01-23T06:18:19.748Z,-7.50
2019-01-23T06:20:49.855Z,-7.50
2019-01-23T06:23:19.535Z,-7.60
2019-01-23T06:25:49.484Z,-7.60
2019-01-23T06:28:19.613Z,-7.60
2019-01-23T06:30:49.312Z,-7.50
2019-01-23T06:33:20.540Z,-7.50
2019-01-23T06:35:50.686Z,-7.40
2019-01-23T06:38:20.340Z,-7.40
2019-01-23T06:40:50.073Z,-7.30
2019-01-23T06:43:19.972Z,-7.10
2019-01-23T06:45:49.672Z,-7.20
2019-01-23T06:48:19.609Z,-7.20
2019-01-23T06:50:51.370Z,-7.20
2019-01-23T06:53:22.906Z,-7.20
2019-01-23T06:55:52.932Z,-7.20
2019-01-23T06:58:23.782Z,-7.30
2019-01-23T07:00:53.798Z,-7.20
2019-01-23T07:03:23.855Z,-7.10
2019-01-23T07:05:53.714Z,-7.00
2019-01-23T07:08:23.720Z,-7.00
2019-01-23T07:10:53.587Z,-7.20
2019-01-23T07:13:23.256Z,-7.20
2019-01-23T07:15:53.273Z,-7.20
2019-01-23T07:18:22.971Z,-7.20
2019-01-23T07:20:52.667Z,-7.20
2019-01-23T07:23:22.594Z,-7.30
2019-01-23T07:25:52.319Z,-7.20
2019-01-23T07:28:22.360Z,-7.20
2019-01-23T07:30:52.212Z,-7.20
2019-01-23T07:33:21.947Z,-7.30
2019-01-23T07:35:51.629Z,-7.30
2019-01-23T07:38:21.537Z,-7.20
2019-01-23T07:40:53.690Z,-7.20
2019-01-23T07:43:25.051Z,-7.10
2019-01-23T07:45:54.859Z,-7.10
2019-01-23T07:48:24.665Z,-7.10
2019-01-23T07:50:55.661Z,-7.10
2019-01-23T07:53:25.525Z,-7.10
2019-01-23T07:55:55.530Z,-7.10
2019-01-23T07:58:27.085Z,-7.00
2019-01-23T08:00:58.325Z,-6.90
2019-01-23T08:03:28.240Z,-6.90
2019-01-23T08:05:58.150Z,-6.80
2019-01-23T08:08:28.591Z,-6.90
2019-01-23T08:10:58.471Z,-6.80
2019-01-23T08:13:29.461Z,-6.80
2019-01-23T08:15:59.339Z,-6.90
2019-01-23T08:18:30.919Z,-6.80
2019-01-23T08:21:02.278Z,-6.80
2019-01-23T08:23:33.222Z,-6.70
2019-01-23T08:26:03.003Z,-6.60
2019-01-23T08:28:32.853Z,-6.60
2019-01-23T08:31:02.568Z,-6.60
2019-01-23T08:33:33.870Z,-6.50
2019-01-23T08:36:03.547Z,-6.50
2019-01-23T08:38:33.314Z,-6.50
2019-01-23T08:41:04.822Z,-6.40
2019-01-23T08:43:34.717Z,-6.30
2019-01-23T08:46:06.639Z,-6.30
2019-01-23T08:48:36.258Z,-6.40
2019-01-23T08:51:08.053Z,-6.40
2019-01-23T08:53:39.898Z,-6.30
2019-01-23T08:56:09.889Z,-6.20
2019-01-23T08:58:39.627Z,-6.10
2019-01-23T09:01:09.347Z,-6.00
2019-01-23T09:03:39.130Z,-5.90
2019-01-23T09:06:08.948Z,-5.90
2019-01-23T09:08:38.803Z,-5.80
2019-01-23T09:11:10.435Z,-5.80
2019-01-23T09:13:40.327Z,-5.70
2019-01-23T09:16:10.093Z,-5.70
2019-01-23T09:18:39.742Z,-5.70
2019-01-23T09:21:09.666Z,-5.80
2019-01-23T09:23:39.349Z,-5.80
2019-01-23T09:26:09.065Z,-5.70
2019-01-23T09:28:38.849Z,-5.80
2019-01-23T09:31:56.002Z,-5.80
2019-01-23T09:35:14.418Z,-5.70
2019-01-23T09:38:17.947Z,-5.60
2019-01-23T09:41:18.554Z,-5.50
2019-01-23T09:44:29.187Z,-5.40
2019-01-23T09:47:28.255Z,-5.30
2019-01-23T09:50:26.619Z,-5.20
2019-01-23T09:53:09.679Z,-5.10
2019-01-23T09:55:39.565Z,-5.10
2019-01-23T09:58:10.779Z,-5.00
2019-01-23T10:00:40.602Z,-4.90
2019-01-23T10:03:10.624Z,-4.90
2019-01-23T10:05:40.331Z,-4.90
2019-01-23T10:08:10.112Z,-4.90
2019-01-23T10:10:40.042Z,-4.70
2019-01-23T10:13:10.852Z,-4.80
2019-01-23T10:16:13.292Z,-4.70
2019-01-23T10:18:43.162Z,-4.60
2019-01-23T10:21:13.073Z,-4.60
2019-01-23T10:23:44.022Z,-4.50
2019-01-23T10:26:13.791Z,-4.40
2019-01-23T10:28:43.638Z,-4.60
2019-01-23T10:31:13.651Z,-4.50
2019-01-23T10:33:44.508Z,-4.50
2019-01-23T10:36:16.253Z,-4.40
2019-01-23T10:38:46.075Z,-4.10
2019-01-23T10:41:15.863Z,-4.00
2019-01-23T10:43:45.931Z,-4.10
2019-01-23T10:46:17.043Z,-4.20
2019-01-23T10:48:47.065Z,-4.20
2019-01-23T10:51:18.236Z,-4.20
2019-01-23T10:53:48.140Z,-4.20
2019-01-23T10:56:17.967Z,-4.20
2019-01-23T10:58:47.980Z,-4.20
2019-01-23T11:01:17.844Z,-4.00
2019-01-23T11:03:47.795Z,-4.00
2019-01-23T11:06:17.793Z,-4.10
2019-01-23T11:08:47.931Z,-4.10
2019-01-23T11:11:17.895Z,-4.20
2019-01-23T11:13:50.223Z,-4.30
2019-01-23T11:16:20.298Z,-4.20
2019-01-23T11:18:52.019Z,-4.10
2019-01-23T11:21:23.177Z,-4.10
2019-01-23T11:23:53.068Z,-4.10
2019-01-23T11:26:25.654Z,-4.20
2019-01-23T11:28:55.649Z,-4.20
2019-01-23T11:31:25.676Z,-4.10
2019-01-23T11:33:57.372Z,-4.20
2019-01-23T11:36:27.344Z,-4.20
2019-01-23T11:38:57.691Z,-4.20
2019-01-23T11:41:27.680Z,-4.10
2019-01-23T11:43:58.050Z,-4.20
2019-01-23T11:46:31.497Z,-4.20
2019-01-23T11:49:01.386Z,-4.10
2019-01-23T11:51:31.191Z,-4.00
2019-01-23T11:54:01.930Z,-4.00
2019-01-23T11:56:31.889Z,-3.90
2019-01-23T11:59:02.987Z,-3.70
2019-01-23T12:01:32.707Z,-3.80
2019-01-23T12:04:02.557Z,-3.80
2019-01-23T12:06:32.429Z,-3.80
2019-01-23T12:09:02.099Z,-3.80
2019-01-23T12:11:31.783Z,-3.80
2019-01-23T12:14:01.463Z,-3.70
2019-01-23T12:16:31.131Z,-3.80
2019-01-23T12:19:00.877Z,-3.80
2019-01-23T12:21:30.522Z,-3.70
2019-01-23T12:24:00.251Z,-3.60
2019-01-23T12:26:30.031Z,-3.50
2019-01-23T12:28:59.905Z,-3.40
2019-01-23T12:31:34.989Z,-3.30
2019-01-23T12:34:01.028Z,-3.50
2019-01-23T12:36:35.416Z,-3.50
2019-01-23T12:39:08.540Z,-3.50
2019-01-23T12:41:39.848Z,-3.40
2019-01-23T12:44:09.595Z,-3.40
2019-01-23T12:46:39.367Z,-3.40
2019-01-23T12:49:09.068Z,-3.40
2019-01-23T12:51:38.712Z,-3.40
2019-01-23T12:54:08.539Z,-3.40
2019-01-23T12:56:38.466Z,-3.30
2019-01-23T12:59:08.186Z,-3.30
2019-01-23T13:01:41.982Z,-3.30
2019-01-23T13:04:09.322Z,-3.30
2019-01-23T13:06:39.139Z,-3.30
2019-01-23T13:09:09.941Z,-3.30
2019-01-23T13:11:39.719Z,-3.20
2019-01-23T13:14:09.513Z,-3.20
2019-01-23T13:16:40.420Z,-3.20
2019-01-23T13:19:10.262Z,-3.20
2019-01-23T13:21:40.038Z,-3.10
2019-01-23T13:24:09.729Z,-3.00
2019-01-23T13:26:39.435Z,-2.90
2019-01-23T13:29:09.179Z,-2.90
2019-01-23T13:31:38.940Z,-2.90
2019-01-23T13:34:08.699Z,-3.10
2019-01-23T13:36:38.469Z,-3.00
2019-01-23T13:39:12.454Z,-3.00
2019-01-23T13:41:45.279Z,-2.90
2019-01-23T13:44:16.987Z,-2.90
2019-01-23T13:46:50.016Z,-3.00
2019-01-23T13:49:19.868Z,-3.00
2019-01-23T13:51:49.713Z,-3.00
2019-01-23T13:54:21.046Z,-3.00
2019-01-23T13:56:50.967Z,-3.00
2019-01-23T13:59:22.507Z,-3.00
2019-01-23T14:01:56.231Z,-3.10
2019-01-23T14:04:23.705Z,-3.10
2019-01-23T14:06:53.517Z,-3.00
2019-01-23T14:09:23.237Z,-3.00
2019-01-23T14:11:53.137Z,-3.00
2019-01-23T14:14:22.797Z,-3.00
2019-01-23T14:16:54.186Z,-2.90
2019-01-23T14:19:23.955Z,-2.80
2019-01-23T14:21:53.694Z,-2.80
2019-01-23T14:24:23.561Z,-2.90
2019-01-23T14:26:53.209Z,-2.90
2019-01-23T14:29:23.040Z,-2.90
2019-01-23T14:31:52.807Z,-2.80
2019-01-23T14:34:22.551Z,-2.80
2019-01-23T14:36:52.202Z,-2.80
2019-01-23T14:39:21.867Z,-2.80
2019-01-23T14:41:53.443Z,-2.80
2019-01-23T14:44:23.155Z,-2.90
2019-01-23T14:46:52.964Z,-2.90
2019-01-23T14:49:22.606Z,-2.80
2019-01-23T14:51:54.189Z,-2.80
2019-01-23T14:54:23.917Z,-2.80
2019-01-23T14:56:53.625Z,-2.80
2019-01-23T14:59:23.615Z,-2.70
2019-01-23T15:01:53.253Z,-2.70
2019-01-23T15:04:22.976Z,-2.80
2019-01-23T15:06:52.702Z,-2.70
2019-01-23T15:09:22.755Z,-2.80
2019-01-23T15:11:54.305Z,-2.80
2019-01-23T15:14:25.140Z,-2.80
2019-01-23T15:16:55.055Z,-2.80
2019-01-23T15:19:24.718Z,-2.80
2019-01-23T15:21:54.391Z,-2.70
2019-01-23T15:24:24.153Z,-2.70
2019-01-23T15:26:53.856Z,-2.70
2019-01-23T15:29:23.711Z,-2.70
2019-01-23T15:31:53.506Z,-2.70
2019-01-23T15:34:23.346Z,-2.60
2019-01-23T15:36:53.146Z,-2.60
2019-01-23T15:39:22.859Z,-2.50
2019-01-23T15:41:52.601Z,-2.60
2019-01-23T15:44:22.318Z,-2.60
2019-01-23T15:46:52.128Z,-2.60
2019-01-23T15:49:21.891Z,-2.60
2019-01-23T15:51:51.768Z,-2.50
2019-01-23T15:54:21.521Z,-2.50
2019-01-23T15:56:51.163Z,-2.50
2019-01-23T15:59:20.838Z,-2.50
2019-01-23T16:01:50.546Z,-2.50
2019-01-23T16:04:20.276Z,-2.40
2019-01-23T16:06:50.088Z,-2.50
2019-01-23T16:09:19.950Z,-2.50
2019-01-23T16:11:49.661Z,-2.50
2019-01-23T16:14:19.460Z,-2.40
2019-01-23T16:16:49.361Z,-2.40
2019-01-23T16:19:23.106Z,-2.50
2019-01-23T16:21:52.988Z,-2.60
2019-01-23T16:24:22.780Z,-2.50
2019-01-23T16:26:57.102Z,-2.50
2019-01-23T16:29:27.115Z,-2.60
2019-01-23T16:31:57.017Z,-2.50
2019-01-23T16:34:26.814Z,-2.50
2019-01-23T16:36:56.515Z,-2.50
2019-01-23T16:39:27.526Z,-2.50
2019-01-23T16:41:57.393Z,-2.40
2019-01-23T16:44:27.363Z,-2.40
2019-01-23T16:46:57.015Z,-2.50
2019-01-23T16:49:26.728Z,-2.50
2019-01-23T16:51:56.636Z,-2.50
2019-01-23T16:54:28.129Z,-2.40
2019-01-23T16:56:57.902Z,-2.50
2019-01-23T16:59:27.708Z,-2.50
2019-01-23T17:01:59.487Z,-2.50
2019-01-23T17:04:29.479Z,-2.60
2019-01-23T17:06:59.247Z,-2.50
2019-01-23T17:09:30.130Z,-2.50
2019-01-23T17:12:09.005Z,-2.60
2019-01-23T17:14:36.504Z,-2.50
2019-01-23T17:17:09.816Z,-2.50
2019-01-23T17:19:39.456Z,-2.50
2019-01-23T17:22:09.185Z,-2.50
2019-01-23T17:24:38.859Z,-2.60
2019-01-23T17:27:08.693Z,-2.60
2019-01-23T17:29:38.331Z,-2.70
2019-01-23T17:32:08.030Z,-2.60
2019-01-23T17:34:37.780Z,-2.60
2019-01-23T17:37:07.522Z,-2.60
2019-01-23T17:39:37.421Z,-2.60
2019-01-23T17:42:07.311Z,-2.60
2019-01-23T17:44:37.414Z,-2.60
2019-01-23T17:47:07.072Z,-2.60
2019-01-23T17:49:40.683Z,-2.60
2019-01-23T17:52:12.023Z,-2.50
2019-01-23T17:54:41.760Z,-2.50
2019-01-23T17:57:11.973Z,-2.50
2019-01-23T17:59:41.622Z,-2.50
2019-01-23T18:02:11.479Z,-2.50
2019-01-23T18:04:41.293Z,-2.50
2019-01-23T18:07:11.294Z,-2.40
2019-01-23T18:09:41.073Z,-2.40
2019-01-23T18:12:10.837Z,-2.50
2019-01-23T18:14:41.325Z,-2.50
2019-01-23T18:17:13.433Z,-2.50
2019-01-23T18:19:45.791Z,-2.50
2019-01-23T18:22:15.711Z,-2.60
2019-01-23T18:24:47.568Z,-2.50
2019-01-23T18:27:17.408Z,-2.60
2019-01-23T18:29:47.344Z,-2.60
2019-01-23T18:32:17.080Z,-2.60
2019-01-23T18:35:38.811Z,-2.70
2019-01-23T18:38:49.001Z,-2.60
2019-01-23T18:41:53.735Z,-2.60
2019-01-23T18:45:00.433Z,-2.60
2019-01-23T18:48:04.891Z,-2.60
2019-01-23T18:51:08.113Z,-2.50
2019-01-23T18:53:37.935Z,-2.60
2019-01-23T18:56:09.305Z,-2.50
2019-01-23T18:58:39.010Z,-2.50
2019-01-23T19:01:08.731Z,-2.50
2019-01-23T19:03:39.996Z,-2.50
2019-01-23T19:06:11.743Z,-2.50
2019-01-23T19:08:43.097Z,-2.60
2019-01-23T19:11:15.428Z,-2.60
2019-01-23T19:13:45.196Z,-2.60
2019-01-23T19:16:17.471Z,-2.60
2019-01-23T19:18:47.213Z,-2.60
2019-01-23T19:21:20.714Z,-2.60
2019-01-23T19:23:50.465Z,-2.60
2019-01-23T19:26:20.362Z,-2.50
2019-01-23T19:28:50.130Z,-2.50
2019-01-23T19:31:19.781Z,-2.50
2019-01-23T19:33:49.645Z,-2.60
2019-01-23T19:36:19.520Z,-2.60
2019-01-23T19:38:49.227Z,-2.60
2019-01-23T19:41:20.537Z,-2.60
2019-01-23T19:43:50.418Z,-2.60
2019-01-23T19:46:23.094Z,-2.60
2019-01-23T19:48:52.837Z,-2.70
2019-01-23T19:51:22.566Z,-2.60
2019-01-23T19:53:52.323Z,-2.50
2019-01-23T19:56:22.206Z,-2.50
2019-01-23T19:58:52.148Z,-2.60
2019-01-23T20:01:21.920Z,-2.60
2019-01-23T20:03:54.737Z,-2.60
2019-01-23T20:06:24.421Z,-2.50
2019-01-23T20:08:54.204Z,-2.50
2019-01-23T20:11:24.469Z,-2.50
2019-01-23T20:13:55.264Z,-2.50
2019-01-23T20:16:26.254Z,-2.50
2019-01-23T20:18:56.028Z,-2.60
2019-01-23T20:21:25.912Z,-2.70
2019-01-23T20:23:58.595Z,-2.60
2019-01-23T20:26:29.516Z,-2.70
2019-01-23T20:28:59.341Z,-2.70
2019-01-23T20:31:29.127Z,-2.70
2019-01-23T20:33:59.081Z,-2.70
2019-01-23T20:36:28.844Z,-2.60
2019-01-23T20:39:00.169Z,-2.70
2019-01-23T20:41:29.994Z,-2.70
2019-01-23T20:43:59.955Z,-2.70
2019-01-23T20:46:29.684Z,-2.70
2019-01-23T20:48:59.764Z,-2.60
2019-01-23T20:51:29.589Z,-2.60
2019-01-23T20:54:02.394Z,-2.60
2019-01-23T20:56:32.440Z,-2.60
2019-01-23T20:59:02.492Z,-2.60
2019-01-23T21:01:32.512Z,-2.60
2019-01-23T21:04:02.240Z,-2.60
2019-01-23T21:06:32.025Z,-2.60
2019-01-23T21:09:01.761Z,-2.70
2019-01-23T21:11:33.035Z,-2.70
2019-01-23T21:14:02.716Z,-2.70
2019-01-23T21:16:32.423Z,-2.70
2019-01-23T21:19:02.164Z,-2.70
2019-01-23T21:21:31.885Z,-2.70
2019-01-23T21:24:01.740Z,-2.70
2019-01-23T21:26:32.946Z,-2.70
2019-01-23T21:29:02.677Z,-2.80
2019-01-23T21:31:32.438Z,-2.80
2019-01-23T21:34:02.284Z,-2.80
2019-01-23T21:36:32.049Z,-2.90
2019-01-23T21:39:04.163Z,-2.90
2019-01-23T21:41:35.324Z,-2.90
2019-01-23T21:44:09.510Z,-2.90
2019-01-23T21:46:42.642Z,-2.90
2019-01-23T21:49:12.367Z,-3.00
2019-01-23T21:51:46.154Z,-3.00
2019-01-23T21:54:19.550Z,-3.00
2019-01-23T21:56:49.368Z,-2.90
2019-01-23T21:59:30.215Z,-2.90
2019-01-23T22:02:01.832Z,-2.90
2019-01-23T22:04:31.584Z,-2.90
2019-01-23T22:07:03.194Z,-2.80
2019-01-23T22:09:33.007Z,-2.80
2019-01-23T22:12:02.752Z,-2.90
2019-01-23T22:14:34.261Z,-2.90
2019-01-23T22:17:04.484Z,-3.00
2019-01-23T22:19:34.915Z,-2.90
2019-01-23T22:22:05.893Z,-2.90
2019-01-23T22:24:35.685Z,-2.90
2019-01-23T22:27:06.177Z,-2.90
2019-01-23T22:29:36.024Z,-2.90
2019-01-23T22:32:05.944Z,-2.90
2019-01-23T22:34:35.711Z,-2.90
2019-01-23T22:37:10.431Z,-3.00
2019-01-23T22:39:40.449Z,-3.00
2019-01-23T22:42:10.361Z,-2.90
2019-01-23T22:44:41.329Z,-2.90
2019-01-23T22:47:12.928Z,-3.00
2019-01-23T22:49:42.635Z,-3.00
2019-01-23T22:52:15.837Z,-3.10
2019-01-23T22:54:46.041Z,-3.10
2019-01-23T22:57:15.947Z,-3.00
2019-01-23T22:59:48.247Z,-3.10
2019-01-23T23:02:20.091Z,-3.10
2019-01-23T23:04:51.791Z,-3.10
2019-01-23T23:07:21.671Z,-3.00
2019-01-23T23:09:51.411Z,-3.10
2019-01-23T23:12:21.198Z,-3.10
2019-01-23T23:14:51.216Z,-3.10
2019-01-23T23:17:21.082Z,-3.10
2019-01-23T23:19:50.789Z,-3.20
2019-01-23T23:22:23.397Z,-3.20
2019-01-23T23:24:53.249Z,-3.20
2019-01-23T23:27:23.126Z,-3.30
2019-01-23T23:29:53.138Z,-3.20
2019-01-23T23:32:22.957Z,-3.20
2019-01-23T23:34:52.688Z,-3.20
2019-01-23T23:37:22.477Z,-3.20
2019-01-23T23:39:52.122Z,-3.20
2019-01-23T23:42:22.134Z,-3.20
2019-01-23T23:44:51.870Z,-3.20
2019-01-23T23:47:21.603Z,-3.20
2019-01-23T23:49:51.519Z,-3.20
2019-01-23T23:52:22.004Z,-3.20
2019-01-23T23:54:51.695Z,-3.30
2019-01-23T23:57:21.458Z,-3.30
2019-01-23T23:59:51.117Z,-3.20
